sensor_id;sensor_type;location;lat;lon;timestamp;temperature;humidity
43842;DHT22;29495;49.970;20.842;2023-03-26T00:01:55;9.10;99.90
43842;DHT22;29495;49.970;20.842;2023-03-26T00:04:23;9.00;99.90
43842;DHT22;29495;49.970;20.842;2023-03-26T00:06:50;9.00;99.90
43842;DHT22;29495;49.970;20.842;2023-03-26T00:09:17;9.00;99.90
43842;DHT22;29495;49.970;20.842;2023-03-26T00:11:43;9.00;99.90
43842;DHT22;29495;49.970;20.842;2023-03-26T00:14:13;9.00;99.90
43842;DHT22;29495;49.970;20.842;2023-03-26T00:16:42;9.00;99.90
43842;DHT22;29495;49.970;20.842;2023-03-26T00:19:10;9.00;99.90
43842;DHT22;29495;49.970;20.842;2023-03-26T00:21:36;9.00;99.90
43842;DHT22;29495;49.970;20.842;2023-03-26T00:24:10;9.00;99.90
43842;DHT22;29495;49.970;20.842;2023-03-26T00:26:39;9.00;99.90
43842;DHT22;29495;49.970;20.842;2023-03-26T00:29:06;9.00;99.90
43842;DHT22;29495;49.970;20.842;2023-03-26T00:31:33;8.90;99.90
43842;DHT22;29495;49.970;20.842;2023-03-26T00:33:59;8.90;99.90
43842;DHT22;29495;49.970;20.842;2023-03-26T00:36:28;8.90;99.90
43842;DHT22;29495;49.970;20.842;2023-03-26T00:38:54;8.90;99.90
43842;DHT22;29495;49.970;20.842;2023-03-26T00:41:22;8.80;99.90
43842;DHT22;29495;49.970;20.842;2023-03-26T00:43:56;8.80;99.90
43842;DHT22;29495;49.970;20.842;2023-03-26T00:46:24;8.90;99.90
43842;DHT22;29495;49.970;20.842;2023-03-26T00:48:51;8.90;99.90
43842;DHT22;29495;49.970;20.842;2023-03-26T00:51:18;8.90;99.90
43842;DHT22;29495;49.970;20.842;2023-03-26T00:53:47;8.90;99.90
43842;DHT22;29495;49.970;20.842;2023-03-26T00:56:13;8.80;99.90
43842;DHT22;29495;49.970;20.842;2023-03-26T00:58:39;8.80;99.90
43842;DHT22;29495;49.970;20.842;2023-03-26T01:01:08;8.80;99.90
43842;DHT22;29495;49.970;20.842;2023-03-26T01:03:36;8.80;99.90
43842;DHT22;29495;49.970;20.842;2023-03-26T01:06:06;8.70;99.90
43842;DHT22;29495;49.970;20.842;2023-03-26T01:08:43;8.70;99.90
43842;DHT22;29495;49.970;20.842;2023-03-26T01:11:19;8.70;99.90
43842;DHT22;29495;49.970;20.842;2023-03-26T01:13:53;8.70;99.90
43842;DHT22;29495;49.970;20.842;2023-03-26T01:16:27;8.70;99.90
43842;DHT22;29495;49.970;20.842;2023-03-26T01:18:55;8.70;99.90
43842;DHT22;29495;49.970;20.842;2023-03-26T01:21:26;8.70;99.90
43842;DHT22;29495;49.970;20.842;2023-03-26T01:24:02;8.70;99.90
43842;DHT22;29495;49.970;20.842;2023-03-26T01:26:53;8.70;99.90
43842;DHT22;29495;49.970;20.842;2023-03-26T01:41:13;8.70;99.90
43842;DHT22;29495;49.970;20.842;2023-03-26T01:46:12;8.70;99.90
43842;DHT22;29495;49.970;20.842;2023-03-26T01:48:42;8.70;99.90
43842;DHT22;29495;49.970;20.842;2023-03-26T01:51:10;8.70;99.90
43842;DHT22;29495;49.970;20.842;2023-03-26T01:53:40;8.70;99.90
43842;DHT22;29495;49.970;20.842;2023-03-26T01:56:13;8.60;99.90
43842;DHT22;29495;49.970;20.842;2023-03-26T01:59:27;8.60;99.90
43842;DHT22;29495;49.970;20.842;2023-03-26T02:04:33;8.60;99.90
43842;DHT22;29495;49.970;20.842;2023-03-26T02:07:33;8.70;99.90
43842;DHT22;29495;49.970;20.842;2023-03-26T02:10:20;8.60;99.90
43842;DHT22;29495;49.970;20.842;2023-03-26T02:12:49;8.70;99.90
43842;DHT22;29495;49.970;20.842;2023-03-26T02:15:15;8.70;99.90
43842;DHT22;29495;49.970;20.842;2023-03-26T02:17:42;8.70;99.90
43842;DHT22;29495;49.970;20.842;2023-03-26T02:20:10;8.70;99.90
43842;DHT22;29495;49.970;20.842;2023-03-26T02:22:37;8.80;99.90
43842;DHT22;29495;49.970;20.842;2023-03-26T02:25:16;8.80;99.90
43842;DHT22;29495;49.970;20.842;2023-03-26T02:27:43;8.80;99.90
43842;DHT22;29495;49.970;20.842;2023-03-26T02:30:14;8.80;99.90
43842;DHT22;29495;49.970;20.842;2023-03-26T02:32:41;8.80;99.90
43842;DHT22;29495;49.970;20.842;2023-03-26T02:35:10;8.80;99.90
43842;DHT22;29495;49.970;20.842;2023-03-26T02:37:36;8.70;99.90
43842;DHT22;29495;49.970;20.842;2023-03-26T02:40:14;8.80;99.90
43842;DHT22;29495;49.970;20.842;2023-03-26T02:42:42;8.80;99.90
43842;DHT22;29495;49.970;20.842;2023-03-26T02:45:09;8.90;99.90
43842;DHT22;29495;49.970;20.842;2023-03-26T02:47:58;8.90;99.90
43842;DHT22;29495;49.970;20.842;2023-03-26T02:50:37;8.90;99.90
43842;DHT22;29495;49.970;20.842;2023-03-26T02:53:27;8.80;99.90
43842;DHT22;29495;49.970;20.842;2023-03-26T02:56:14;8.90;99.90
43842;DHT22;29495;49.970;20.842;2023-03-26T02:58:52;8.90;99.90
43842;DHT22;29495;49.970;20.842;2023-03-26T03:01:18;8.80;99.90
43842;DHT22;29495;49.970;20.842;2023-03-26T03:03:50;8.80;99.90
43842;DHT22;29495;49.970;20.842;2023-03-26T03:06:25;8.50;99.90
43842;DHT22;29495;49.970;20.842;2023-03-26T03:08:57;8.50;99.90
43842;DHT22;29495;49.970;20.842;2023-03-26T03:11:45;8.30;99.90
43842;DHT22;29495;49.970;20.842;2023-03-26T03:14:11;8.30;99.90
43842;DHT22;29495;49.970;20.842;2023-03-26T03:16:37;8.20;99.90
43842;DHT22;29495;49.970;20.842;2023-03-26T03:19:09;8.20;99.90
43842;DHT22;29495;49.970;20.842;2023-03-26T03:21:37;8.20;99.90
43842;DHT22;29495;49.970;20.842;2023-03-26T03:24:03;8.20;99.90
43842;DHT22;29495;49.970;20.842;2023-03-26T03:26:33;8.20;99.90
43842;DHT22;29495;49.970;20.842;2023-03-26T03:29:12;8.20;99.90
43842;DHT22;29495;49.970;20.842;2023-03-26T03:31:38;8.10;99.90
43842;DHT22;29495;49.970;20.842;2023-03-26T03:34:12;8.20;99.90
43842;DHT22;29495;49.970;20.842;2023-03-26T03:36:44;8.10;99.90
43842;DHT22;29495;49.970;20.842;2023-03-26T03:39:24;8.20;99.90
43842;DHT22;29495;49.970;20.842;2023-03-26T03:41:50;8.20;99.90
43842;DHT22;29495;49.970;20.842;2023-03-26T03:44:16;8.30;99.90
43842;DHT22;29495;49.970;20.842;2023-03-26T03:46:43;8.30;99.90
43842;DHT22;29495;49.970;20.842;2023-03-26T03:49:09;8.20;99.90
43842;DHT22;29495;49.970;20.842;2023-03-26T03:51:36;8.20;99.90
43842;DHT22;29495;49.970;20.842;2023-03-26T03:54:09;8.10;99.90
43842;DHT22;29495;49.970;20.842;2023-03-26T03:56:45;8.10;99.90
43842;DHT22;29495;49.970;20.842;2023-03-26T03:59:20;8.10;99.90
43842;DHT22;29495;49.970;20.842;2023-03-26T04:01:48;8.10;99.90
43842;DHT22;29495;49.970;20.842;2023-03-26T04:04:24;8.10;99.90
43842;DHT22;29495;49.970;20.842;2023-03-26T04:06:58;8.20;99.90
43842;DHT22;29495;49.970;20.842;2023-03-26T04:09:28;8.20;99.90
43842;DHT22;29495;49.970;20.842;2023-03-26T04:11:59;8.30;99.90
43842;DHT22;29495;49.970;20.842;2023-03-26T04:14:51;8.30;99.90
43842;DHT22;29495;49.970;20.842;2023-03-26T04:17:19;8.30;99.90
43842;DHT22;29495;49.970;20.842;2023-03-26T04:19:48;8.30;99.90
43842;DHT22;29495;49.970;20.842;2023-03-26T04:22:16;8.20;99.90
43842;DHT22;29495;49.970;20.842;2023-03-26T04:24:59;8.10;99.90
43842;DHT22;29495;49.970;20.842;2023-03-26T04:27:31;8.10;99.90
43842;DHT22;29495;49.970;20.842;2023-03-26T04:30:26;8.10;99.90
43842;DHT22;29495;49.970;20.842;2023-03-26T04:33:12;8.10;99.90
43842;DHT22;29495;49.970;20.842;2023-03-26T04:35:41;8.20;99.90
43842;DHT22;29495;49.970;20.842;2023-03-26T04:38:11;8.20;99.90
43842;DHT22;29495;49.970;20.842;2023-03-26T04:40:44;8.10;99.90
43842;DHT22;29495;49.970;20.842;2023-03-26T04:43:15;8.20;99.90
43842;DHT22;29495;49.970;20.842;2023-03-26T04:46:18;8.10;99.90
43842;DHT22;29495;49.970;20.842;2023-03-26T04:48:52;8.20;99.90
43842;DHT22;29495;49.970;20.842;2023-03-26T04:51:21;8.20;99.90
43842;DHT22;29495;49.970;20.842;2023-03-26T04:53:54;8.20;99.90
43842;DHT22;29495;49.970;20.842;2023-03-26T04:56:49;8.20;99.90
43842;DHT22;29495;49.970;20.842;2023-03-26T04:59:31;8.20;99.90
43842;DHT22;29495;49.970;20.842;2023-03-26T05:02:05;8.20;99.90
43842;DHT22;29495;49.970;20.842;2023-03-26T05:04:43;8.40;99.90
43842;DHT22;29495;49.970;20.842;2023-03-26T05:07:19;8.30;99.90
43842;DHT22;29495;49.970;20.842;2023-03-26T05:09:51;8.40;99.90
43842;DHT22;29495;49.970;20.842;2023-03-26T05:12:22;8.40;99.90
43842;DHT22;29495;49.970;20.842;2023-03-26T05:15:09;8.50;99.90
43842;DHT22;29495;49.970;20.842;2023-03-26T05:17:46;8.40;99.90
43842;DHT22;29495;49.970;20.842;2023-03-26T05:20:36;8.60;99.90
43842;DHT22;29495;49.970;20.842;2023-03-26T05:23:05;8.50;99.90
43842;DHT22;29495;49.970;20.842;2023-03-26T05:25:35;8.50;99.90
43842;DHT22;29495;49.970;20.842;2023-03-26T05:28:03;8.60;99.90
43842;DHT22;29495;49.970;20.842;2023-03-26T05:30:45;8.60;99.90
43842;DHT22;29495;49.970;20.842;2023-03-26T05:33:11;8.70;99.90
43842;DHT22;29495;49.970;20.842;2023-03-26T05:35:58;8.70;99.90
43842;DHT22;29495;49.970;20.842;2023-03-26T05:38:24;8.60;99.90
43842;DHT22;29495;49.970;20.842;2023-03-26T05:40:50;8.70;99.90
43842;DHT22;29495;49.970;20.842;2023-03-26T05:43:19;8.80;99.90
43842;DHT22;29495;49.970;20.842;2023-03-26T05:45:49;8.80;99.90
43842;DHT22;29495;49.970;20.842;2023-03-26T05:48:23;8.90;99.90
43842;DHT22;29495;49.970;20.842;2023-03-26T05:50:51;9.10;99.90
43842;DHT22;29495;49.970;20.842;2023-03-26T05:53:19;9.30;99.90
43842;DHT22;29495;49.970;20.842;2023-03-26T05:56:04;9.40;99.90
43842;DHT22;29495;49.970;20.842;2023-03-26T05:58:49;9.70;99.90
43842;DHT22;29495;49.970;20.842;2023-03-26T06:01:22;9.80;99.90
43842;DHT22;29495;49.970;20.842;2023-03-26T06:04:19;10.70;99.90
43842;DHT22;29495;49.970;20.842;2023-03-26T06:07:02;11.30;99.90
43842;DHT22;29495;49.970;20.842;2023-03-26T06:09:29;11.40;99.90
43842;DHT22;29495;49.970;20.842;2023-03-26T06:11:54;11.20;99.90
43842;DHT22;29495;49.970;20.842;2023-03-26T06:14:21;11.10;99.90
43842;DHT22;29495;49.970;20.842;2023-03-26T06:17:05;10.90;99.90
43842;DHT22;29495;49.970;20.842;2023-03-26T06:19:51;11.00;99.90
43842;DHT22;29495;49.970;20.842;2023-03-26T06:22:23;11.00;99.90
43842;DHT22;29495;49.970;20.842;2023-03-26T06:25:18;11.70;99.90
43842;DHT22;29495;49.970;20.842;2023-03-26T06:28:10;12.30;99.90
43842;DHT22;29495;49.970;20.842;2023-03-26T06:30:59;13.20;98.70
43842;DHT22;29495;49.970;20.842;2023-03-26T06:33:38;14.20;97.50
43842;DHT22;29495;49.970;20.842;2023-03-26T06:36:04;14.50;92.40
43842;DHT22;29495;49.970;20.842;2023-03-26T06:38:30;14.30;92.60
43842;DHT22;29495;49.970;20.842;2023-03-26T06:41:05;13.30;92.10
43842;DHT22;29495;49.970;20.842;2023-03-26T06:43:43;14.50;91.20
43842;DHT22;29495;49.970;20.842;2023-03-26T06:46:27;14.10;90.10
43842;DHT22;29495;49.970;20.842;2023-03-26T06:49:16;13.60;91.80
43842;DHT22;29495;49.970;20.842;2023-03-26T06:52:11;13.00;92.80
43842;DHT22;29495;49.970;20.842;2023-03-26T06:54:58;12.80;93.10
43842;DHT22;29495;49.970;20.842;2023-03-26T06:57:54;13.90;91.30
43842;DHT22;29495;49.970;20.842;2023-03-26T07:00:58;14.80;87.80
43842;DHT22;29495;49.970;20.842;2023-03-26T07:03:43;15.60;86.40
43842;DHT22;29495;49.970;20.842;2023-03-26T07:06:27;14.60;81.20
43842;DHT22;29495;49.970;20.842;2023-03-26T07:09:22;14.10;86.40
43842;DHT22;29495;49.970;20.842;2023-03-26T07:12:16;13.30;89.60
43842;DHT22;29495;49.970;20.842;2023-03-26T07:15:01;12.70;91.60
43842;DHT22;29495;49.970;20.842;2023-03-26T07:18:03;12.70;91.80
43842;DHT22;29495;49.970;20.842;2023-03-26T07:20:32;12.30;91.70
43842;DHT22;29495;49.970;20.842;2023-03-26T07:22:58;12.00;93.30
43842;DHT22;29495;49.970;20.842;2023-03-26T07:25:40;12.00;94.60
43842;DHT22;29495;49.970;20.842;2023-03-26T07:28:16;11.90;95.30
43842;DHT22;29495;49.970;20.842;2023-03-26T08:30:16;12.00;95.80
43842;DHT22;29495;49.970;20.842;2023-03-26T08:32:53;12.10;94.60
43842;DHT22;29495;49.970;20.842;2023-03-26T08:35:21;12.50;94.90
43842;DHT22;29495;49.970;20.842;2023-03-26T08:37:47;12.70;94.10
43842;DHT22;29495;49.970;20.842;2023-03-26T08:40:34;12.90;92.10
43842;DHT22;29495;49.970;20.842;2023-03-26T11:07:25;12.90;81.50
43842;DHT22;29495;49.970;20.842;2023-03-26T11:20:39;13.10;82.20
43842;DHT22;29495;49.970;20.842;2023-03-26T11:28:34;13.60;77.30
43842;DHT22;29495;49.970;20.842;2023-03-26T11:31:18;13.70;79.90
43842;DHT22;29495;49.970;20.842;2023-03-26T11:33:52;13.50;74.50
43842;DHT22;29495;49.970;20.842;2023-03-26T11:36:28;13.80;73.40
43842;DHT22;29495;49.970;20.842;2023-03-26T11:39:28;14.00;74.80
43842;DHT22;29495;49.970;20.842;2023-03-26T11:42:22;14.00;71.30
43842;DHT22;29495;49.970;20.842;2023-03-26T11:45:45;13.90;73.10
43842;DHT22;29495;49.970;20.842;2023-03-26T11:49:17;13.90;74.60
43842;DHT22;29495;49.970;20.842;2023-03-26T11:57:08;13.90;72.80
43842;DHT22;29495;49.970;20.842;2023-03-26T12:05:19;13.70;73.80
43842;DHT22;29495;49.970;20.842;2023-03-26T12:22:42;14.20;72.90
43842;DHT22;29495;49.970;20.842;2023-03-26T12:25:17;14.10;69.80
43842;DHT22;29495;49.970;20.842;2023-03-26T12:27:57;14.00;70.90
43842;DHT22;29495;49.970;20.842;2023-03-26T12:30:26;13.90;71.00
43842;DHT22;29495;49.970;20.842;2023-03-26T12:32:56;14.00;71.80
43842;DHT22;29495;49.970;20.842;2023-03-26T12:35:53;13.90;70.60
43842;DHT22;29495;49.970;20.842;2023-03-26T20:31:04;8.20;99.90
43842;DHT22;29495;49.970;20.842;2023-03-26T21:46:46;8.30;99.90
43842;DHT22;29495;49.970;20.842;2023-03-26T21:49:21;8.20;99.90
43842;DHT22;29495;49.970;20.842;2023-03-26T21:52:29;8.30;99.90
43842;DHT22;29495;49.970;20.842;2023-03-26T21:55:13;8.20;99.90
43842;DHT22;29495;49.970;20.842;2023-03-26T22:07:26;8.20;99.90
43842;DHT22;29495;49.970;20.842;2023-03-26T22:10:13;8.40;99.90
43842;DHT22;29495;49.970;20.842;2023-03-26T22:17:44;8.20;99.90
43842;DHT22;29495;49.970;20.842;2023-03-26T22:21:04;8.00;99.90
43842;DHT22;29495;49.970;20.842;2023-03-26T22:23:56;8.10;99.90
43842;DHT22;29495;49.970;20.842;2023-03-26T22:27:01;8.20;99.90
43842;DHT22;29495;49.970;20.842;2023-03-26T22:29:55;8.20;99.90
43842;DHT22;29495;49.970;20.842;2023-03-26T22:33:07;8.20;99.90
43842;DHT22;29495;49.970;20.842;2023-03-26T22:35:54;8.10;99.90
43842;DHT22;29495;49.970;20.842;2023-03-26T22:38:46;8.10;99.90
43842;DHT22;29495;49.970;20.842;2023-03-26T22:46:40;8.00;99.90
43842;DHT22;29495;49.970;20.842;2023-03-26T22:49:38;8.00;99.90
43842;DHT22;29495;49.970;20.842;2023-03-26T23:00:32;8.00;99.90
43842;DHT22;29495;49.970;20.842;2023-03-26T23:07:25;7.90;99.90
43842;DHT22;29495;49.970;20.842;2023-03-26T23:09:54;7.90;99.90
43842;DHT22;29495;49.970;20.842;2023-03-26T23:12:20;7.80;99.90
43842;DHT22;29495;49.970;20.842;2023-03-26T23:14:51;7.80;99.90
43842;DHT22;29495;49.970;20.842;2023-03-26T23:21:24;7.80;99.90
43842;DHT22;29495;49.970;20.842;2023-03-26T23:24:35;7.90;99.90
43842;DHT22;29495;49.970;20.842;2023-03-26T23:27:33;7.80;99.90
43842;DHT22;29495;49.970;20.842;2023-03-26T23:30:04;7.90;99.90
43842;DHT22;29495;49.970;20.842;2023-03-26T23:32:49;8.00;99.90
43842;DHT22;29495;49.970;20.842;2023-03-26T23:35:20;8.00;99.90
43842;DHT22;29495;49.970;20.842;2023-03-26T23:38:01;8.10;99.90
43842;DHT22;29495;49.970;20.842;2023-03-26T23:40:34;8.10;99.90
